Time;durP1;ratioP1;P1;durP2;ratioP2;P2;SDS_P1;SDS_P2;PMS_P1;PMS_P2;Temp;Humidity;BMP_temperature;BMP_pressure;BME280_temperature;BME280_humidity;BME280_pressure;Samples;Min_cycle;Max_cycle;Signal;HPM_P1;HPM_P2
2021/03/20 00:00:16;;;;;;;13.37;10.10;;;2.40;79.70;;;;;;5007641;28;20208;-60
2021/03/20 00:02:44;;;;;;;15.40;10.47;;;2.40;79.20;;;;;;5002490;28;20211;-60
2021/03/20 00:05:12;;;;;;;16.47;11.90;;;2.40;78.70;;;;;;5002908;28;20215;-60
2021/03/20 00:07:40;;;;;;;19.13;11.10;;;2.30;78.20;;;;;;5010680;28;20218;-60
2021/03/20 00:10:10;;;;;;;16.27;11.40;;;2.20;78.20;;;;;;5008400;28;20244;-60
2021/03/20 00:12:37;;;;;;;17.67;12.67;;;2.10;78.00;;;;;;5009471;28;20218;-60
2021/03/20 00:15:06;;;;;;;20.90;12.20;;;2.10;78.20;;;;;;5008087;28;20251;-60
2021/03/20 00:17:33;;;;;;;18.37;12.10;;;2.10;78.40;;;;;;5005980;28;20212;-60
2021/03/20 00:20:02;;;;;;;15.20;10.83;;;2.10;78.60;;;;;;5009695;28;20549;-60
2021/03/20 00:22:31;;;;;;;17.43;11.90;;;2.00;78.50;;;;;;5010458;28;20204;-60
2021/03/20 00:24:58;;;;;;;13.17;10.27;;;2.00;78.80;;;;;;4993760;28;20208;-60
2021/03/20 00:27:43;;;;;;;15.27;11.57;;;2.00;79.10;;;;;;5009275;28;20214;-59
2021/03/20 00:30:11;;;;;;;16.53;11.57;;;2.00;79.30;;;;;;5010844;28;20212;-59
2021/03/20 00:32:38;;;;;;;14.50;11.53;;;2.00;79.60;;;;;;4991455;28;20554;-59
2021/03/20 00:35:10;;;;;;;17.43;12.10;;;2.00;79.80;;;;;;5006864;28;20451;-59
2021/03/20 00:37:37;;;;;;;16.30;11.33;;;2.00;80.00;;;;;;5008423;28;20274;-60
2021/03/20 00:40:09;;;;;;;17.87;12.47;;;2.00;79.90;;;;;;5011400;28;20208;-60
2021/03/20 00:42:36;;;;;;;18.93;12.37;;;2.00;79.90;;;;;;5008843;28;20204;-60
2021/03/20 00:45:07;;;;;;;22.20;13.97;;;1.90;79.70;;;;;;5011338;28;20692;-60
2021/03/20 00:47:33;;;;;;;18.20;12.93;;;1.90;79.70;;;;;;5014201;28;20250;-60
2021/03/20 00:50:02;;;;;;;19.37;13.63;;;1.80;79.80;;;;;;4993561;28;20208;-59
2021/03/20 00:52:28;;;;;;;18.97;12.53;;;1.70;80.10;;;;;;5013096;28;20652;-59
2021/03/20 00:54:55;;;;;;;19.57;13.50;;;1.60;80.30;;;;;;5013874;28;20262;-60
2021/03/20 00:57:22;;;;;;;20.87;12.80;;;1.60;80.50;;;;;;5012040;28;20214;-59
2021/03/20 00:59:49;;;;;;;17.57;12.67;;;1.60;80.60;;;;;;5014497;28;20281;-59
2021/03/20 01:02:16;;;;;;;18.93;12.77;;;1.60;80.60;;;;;;5011860;28;20239;-60
2021/03/20 01:04:43;;;;;;;24.77;14.20;;;1.50;80.50;;;;;;5012981;28;20265;-60
2021/03/20 01:07:10;;;;;;;22.07;13.33;;;1.50;80.60;;;;;;4985550;28;20226;-59
2021/03/20 01:09:37;;;;;;;19.87;12.43;;;1.50;80.80;;;;;;5012533;28;20235;-60
2021/03/20 01:12:04;;;;;;;23.57;14.23;;;1.50;80.50;;;;;;5013816;28;20212;-59
2021/03/20 01:14:32;;;;;;;23.60;15.13;;;1.40;80.40;;;;;;5011474;28;20293;-60
2021/03/20 01:16:58;;;;;;;24.70;14.40;;;1.40;80.90;;;;;;5014160;28;20301;-59
2021/03/20 01:19:25;;;;;;;23.83;13.37;;;1.40;81.20;;;;;;5010408;28;20224;-60
2021/03/20 01:21:52;;;;;;;24.53;14.70;;;1.40;81.20;;;;;;5011857;28;20305;-60
2021/03/20 01:24:19;;;;;;;28.37;14.67;;;1.40;81.00;;;;;;5014229;28;20236;-60
2021/03/20 01:26:46;;;;;;;23.70;15.17;;;1.50;81.10;;;;;;4997038;28;20450;-60
2021/03/20 01:29:13;;;;;;;21.43;14.47;;;1.50;81.20;;;;;;5010336;28;20804;-59
2021/03/20 01:31:40;;;;;;;23.00;13.83;;;1.50;81.30;;;;;;5010303;28;20597;-59
2021/03/20 01:34:07;;;;;;;24.27;13.47;;;1.50;81.40;;;;;;5012877;28;20232;-60
2021/03/20 01:36:34;;;;;;;22.40;12.63;;;1.40;81.40;;;;;;5002441;28;20219;-60
2021/03/20 01:39:01;;;;;;;20.47;11.93;;;1.50;81.40;;;;;;5011060;28;20282;-60
2021/03/20 01:41:28;;;;;;;18.93;12.43;;;1.50;81.30;;;;;;5013786;28;20223;-59
2021/03/20 01:43:54;;;;;;;19.47;11.73;;;1.50;81.10;;;;;;4990380;28;20294;-59
2021/03/20 01:46:38;;;;;;;19.40;11.80;;;1.50;81.00;;;;;;5012644;28;20208;-59
2021/03/20 01:49:24;;;;;;;14.57;10.90;;;1.50;80.80;;;;;;5005012;28;20634;-59
2021/03/20 01:52:12;;;;;;;15.57;10.33;;;1.50;80.70;;;;;;5007346;28;20218;-59
2021/03/20 01:54:56;;;;;;;15.23;10.60;;;1.50;80.50;;;;;;5011387;28;20231;-59
2021/03/20 01:57:46;;;;;;;15.57;10.43;;;1.50;80.20;;;;;;5006744;28;20239;-59
2021/03/20 02:00:17;;;;;;;17.27;10.47;;;1.50;80.00;;;;;;5018084;28;20214;-59
2021/03/20 02:02:44;;;;;;;14.37;10.73;;;1.40;79.60;;;;;;4994203;28;20203;-59
2021/03/20 02:05:18;;;;;;;16.93;10.27;;;1.40;79.50;;;;;;5003281;28;20212;-59
2021/03/20 02:07:45;;;;;;;14.00;9.90;;;1.30;79.40;;;;;;5013345;28;20273;-59
2021/03/20 02:10:13;;;;;;;16.00;9.67;;;1.30;79.30;;;;;;5011203;28;20279;-59
2021/03/20 02:12:42;;;;;;;18.03;10.27;;;1.20;79.10;;;;;;5011320;28;20235;-59
2021/03/20 02:15:36;;;;;;;14.43;10.10;;;1.20;78.90;;;;;;5010555;28;20223;-59
2021/03/20 02:18:14;;;;;;;15.13;9.40;;;1.10;78.90;;;;;;5010995;28;20299;-59
2021/03/20 02:21:04;;;;;;;15.50;10.00;;;1.10;78.90;;;;;;5004399;28;20210;-59
2021/03/20 02:23:59;;;;;;;23.70;10.90;;;1.10;78.80;;;;;;4990163;28;20237;-59
2021/03/20 02:27:22;;;;;;;12.10;8.57;;;1.00;78.70;;;;;;5006806;28;20270;-59
2021/03/20 02:30:07;;;;;;;13.43;9.07;;;1.00;78.50;;;;;;4946809;29;20217;-59
2021/03/20 02:32:53;;;;;;;16.90;9.83;;;0.90;78.20;;;;;;5001562;28;20238;-59
2021/03/20 02:35:32;;;;;;;13.60;9.67;;;0.90;78.10;;;;;;5009180;28;20532;-59
2021/03/20 02:38:13;;;;;;;13.60;8.90;;;0.90;78.10;;;;;;5009642;28;20290;-59
2021/03/20 02:41:09;;;;;;;16.00;9.77;;;0.90;78.10;;;;;;5005580;28;20204;-59
2021/03/20 02:43:40;;;;;;;13.47;9.13;;;0.90;78.00;;;;;;5008921;28;20235;-59
2021/03/20 02:46:35;;;;;;;12.83;9.27;;;0.90;77.90;;;;;;5012316;28;20454;-59
2021/03/20 02:49:08;;;;;;;13.17;9.23;;;0.90;77.90;;;;;;5010929;28;20685;-59
2021/03/20 02:51:55;;;;;;;15.17;9.90;;;0.80;77.70;;;;;;5006755;28;20215;-59
2021/03/20 02:54:33;;;;;;;13.97;9.93;;;0.70;77.60;;;;;;5006648;28;20295;-59
2021/03/20 02:57:09;;;;;;;15.27;10.00;;;0.70;78.40;;;;;;5004837;28;20266;-59
2021/03/20 02:59:40;;;;;;;12.17;9.73;;;0.70;78.00;;;;;;5011990;28;20712;-59
2021/03/20 03:02:11;;;;;;;14.50;10.20;;;0.70;78.10;;;;;;5012862;28;20212;-59
2021/03/20 03:05:07;;;;;;;15.23;10.10;;;0.60;77.90;;;;;;5008175;28;20246;-59
2021/03/20 03:07:58;;;;;;;12.27;9.13;;;0.60;77.70;;;;;;5007839;28;20230;-59
2021/03/20 03:10:37;;;;;;;14.63;9.63;;;0.60;77.70;;;;;;5006391;28;20235;-59
2021/03/20 03:13:06;;;;;;;15.60;9.33;;;0.50;77.70;;;;;;4994608;28;20661;-60
2021/03/20 03:15:45;;;;;;;18.00;9.27;;;0.50;77.90;;;;;;5012352;28;20529;-59
2021/03/20 03:18:22;;;;;;;14.27;8.93;;;0.50;78.10;;;;;;5012303;28;20235;-58
2021/03/20 03:20:56;;;;;;;14.27;9.13;;;0.50;78.40;;;;;;5007205;28;20208;-59
2021/03/20 03:23:25;;;;;;;16.00;9.53;;;0.50;78.00;;;;;;4986686;28;20244;-59
2021/03/20 03:26:07;;;;;;;12.93;8.87;;;0.50;78.10;;;;;;4990389;28;20219;-59
2021/03/20 03:28:34;;;;;;;13.40;8.97;;;0.50;78.10;;;;;;4981426;28;20223;-59
2021/03/20 03:31:11;;;;;;;14.90;9.83;;;0.50;78.20;;;;;;4991652;28;20278;-59
2021/03/20 03:33:46;;;;;;;12.90;8.53;;;0.50;78.20;;;;;;4990559;28;20241;-59
2021/03/20 03:36:17;;;;;;;15.33;10.00;;;0.60;78.30;;;;;;4986339;28;20691;-59
2021/03/20 03:38:55;;;;;;;13.93;8.47;;;0.60;78.20;;;;;;4986336;28;20558;-59
2021/03/20 03:41:42;;;;;;;12.37;8.93;;;0.60;78.30;;;;;;4986505;28;20216;-59
2021/03/20 03:44:09;;;;;;;17.07;9.70;;;0.50;78.20;;;;;;4989183;28;20282;-59
2021/03/20 03:46:42;;;;;;;15.07;9.90;;;0.60;78.30;;;;;;4992176;28;20244;-59
2021/03/20 03:49:12;;;;;;;13.40;9.57;;;0.50;78.20;;;;;;4984429;28;20232;-59
2021/03/20 03:51:40;;;;;;;17.83;9.67;;;0.60;78.20;;;;;;4991639;28;20642;-59
2021/03/20 03:54:07;;;;;;;17.20;9.57;;;0.50;78.20;;;;;;4989478;28;20229;-59
2021/03/20 03:57:01;;;;;;;15.27;10.13;;;0.60;78.40;;;;;;4990366;28;20204;-59
2021/03/20 03:59:37;;;;;;;13.07;9.33;;;0.60;78.50;;;;;;4982541;28;20554;-59
2021/03/20 04:02:03;;;;;;;13.93;9.33;;;0.60;78.50;;;;;;4992369;28;20215;-59
2021/03/20 04:05:04;;;;;;;16.10;10.10;;;0.60;78.40;;;;;;5006430;28;20216;-59
2021/03/20 04:07:53;;;;;;;12.47;9.53;;;0.60;78.40;;;;;;5002393;28;20304;-59
2021/03/20 04:10:38;;;;;;;17.53;9.87;;;0.60;78.30;;;;;;5000857;28;20529;-59
2021/03/20 04:13:14;;;;;;;16.53;9.90;;;0.60;78.00;;;;;;4989380;28;20244;-59
2021/03/20 04:16:08;;;;;;;14.30;10.17;;;0.50;78.60;;;;;;4984206;28;20767;-59
2021/03/20 04:18:50;;;;;;;14.83;10.67;;;0.40;78.10;;;;;;4987579;28;20223;-59
2021/03/20 04:21:22;;;;;;;13.43;10.30;;;0.40;78.20;;;;;;4987685;28;20295;-59
2021/03/20 04:24:16;;;;;;;16.43;10.17;;;0.40;78.30;;;;;;5007743;28;20236;-59
2021/03/20 04:26:51;;;;;;;15.97;10.97;;;0.40;78.40;;;;;;5014926;28;20653;-59
2021/03/20 04:29:36;;;;;;;15.23;10.13;;;0.40;78.40;;;;;;5003554;28;20627;-58
2021/03/20 04:32:38;;;;;;;17.57;11.03;;;0.40;78.40;;;;;;5011237;28;20216;-59
2021/03/20 04:35:15;;;;;;;14.00;9.93;;;0.40;78.00;;;;;;4936349;29;20238;-59
2021/03/20 04:37:47;;;;;;;17.77;10.43;;;0.30;77.70;;;;;;4955115;28;20309;-59
2021/03/20 04:40:27;;;;;;;16.57;10.90;;;0.30;77.70;;;;;;4945581;29;20210;-59
2021/03/20 04:42:57;;;;;;;15.07;10.57;;;0.20;77.90;;;;;;4950922;28;20308;-59
2021/03/20 04:45:31;;;;;;;18.33;12.00;;;0.20;78.20;;;;;;4954966;28;20210;-59
2021/03/20 04:48:06;;;;;;;15.53;10.93;;;0.20;78.50;;;;;;4948951;28;20220;-59
2021/03/20 04:50:36;;;;;;;24.83;11.73;;;0.20;78.40;;;;;;4955434;28;20221;-60
2021/03/20 04:53:03;;;;;;;16.67;11.40;;;0.10;78.30;;;;;;4954167;28;20221;-60
2021/03/20 04:55:30;;;;;;;17.37;10.73;;;0.10;78.40;;;;;;4938306;29;20230;-59
2021/03/20 04:58:08;;;;;;;16.90;10.00;;;0.00;78.50;;;;;;4954562;28;20222;-59
2021/03/20 05:00:48;;;;;;;12.67;10.00;;;-0.10;78.70;;;;;;4939656;29;20225;-60
2021/03/20 05:03:28;;;;;;;16.87;11.03;;;-0.10;78.80;;;;;;4953061;28;20253;-60
2021/03/20 05:06:04;;;;;;;19.43;11.83;;;-0.10;78.70;;;;;;4948945;28;20209;-60
2021/03/20 05:08:55;;;;;;;16.77;10.87;;;-0.20;78.70;;;;;;4969749;28;20212;-59
2021/03/20 05:11:32;;;;;;;15.30;10.60;;;-0.20;78.90;;;;;;5006448;28;20204;-60
2021/03/20 05:14:14;;;;;;;17.53;10.83;;;-0.20;79.00;;;;;;5013488;28;20326;-60
2021/03/20 05:16:47;;;;;;;15.37;11.13;;;-0.20;79.10;;;;;;5013516;28;20262;-60
2021/03/20 05:19:15;;;;;;;13.80;11.43;;;-0.20;79.10;;;;;;5014786;28;20208;-59
2021/03/20 05:21:50;;;;;;;16.93;11.97;;;-0.20;79.10;;;;;;5014633;28;20214;-59
2021/03/20 05:24:38;;;;;;;17.07;10.63;;;-0.20;79.10;;;;;;5013376;28;20411;-60
2021/03/20 05:27:16;;;;;;;18.50;11.30;;;-0.20;79.00;;;;;;4995540;28;20216;-60
2021/03/20 05:29:43;;;;;;;18.20;11.47;;;-0.10;78.90;;;;;;5006195;28;20303;-60
2021/03/20 05:32:13;;;;;;;22.40;12.13;;;-0.10;78.80;;;;;;5010167;28;20210;-60
2021/03/20 05:34:42;;;;;;;17.50;11.37;;;-0.10;78.90;;;;;;4992614;28;20224;-60
2021/03/20 05:37:23;;;;;;;17.53;11.67;;;-0.10;79.10;;;;;;5011846;28;20219;-60
2021/03/20 05:39:50;;;;;;;17.00;11.67;;;0.00;79.20;;;;;;5010727;28;20625;-60
2021/03/20 05:43:00;;;;;;;17.90;11.30;;;0.10;79.00;;;;;;5011108;28;20209;-60
2021/03/20 05:45:51;;;;;;;19.57;11.23;;;0.10;78.90;;;;;;5012929;28;20245;-60
2021/03/20 05:48:29;;;;;;;17.67;11.03;;;0.20;79.00;;;;;;5007178;28;20553;-60
2021/03/20 05:51:21;;;;;;;20.60;12.23;;;0.40;79.10;;;;;;5010879;28;20216;-60
2021/03/20 05:54:07;;;;;;;18.30;10.50;;;0.60;79.30;;;;;;5013577;28;20249;-60
2021/03/20 05:56:33;;;;;;;16.30;11.87;;;0.70;79.00;;;;;;5013743;28;20204;-60
2021/03/20 05:59:22;;;;;;;17.80;12.07;;;1.00;78.80;;;;;;5012201;28;20255;-60
2021/03/20 06:02:31;;;;;;;15.67;10.77;;;1.30;78.80;;;;;;5008890;28;20266;-60
2021/03/20 06:05:15;;;;;;;18.00;11.67;;;1.60;78.30;;;;;;5012965;28;20208;-60
2021/03/20 06:07:54;;;;;;;15.70;10.53;;;1.90;77.60;;;;;;5009505;28;20216;-60
2021/03/20 06:10:40;;;;;;;14.73;11.33;;;2.10;76.70;;;;;;5006313;28;20224;-60
2021/03/20 06:13:35;;;;;;;17.27;11.53;;;2.30;76.10;;;;;;5006991;28;20211;-60
2021/03/20 06:16:30;;;;;;;14.77;10.47;;;2.60;75.70;;;;;;5007151;28;20204;-60
2021/03/20 06:19:21;;;;;;;16.40;12.00;;;2.80;75.20;;;;;;4998886;28;20213;-60
2021/03/20 06:22:31;;;;;;;18.30;11.50;;;3.00;74.50;;;;;;5004724;28;20557;-60
2021/03/20 06:25:21;;;;;;;16.77;10.83;;;3.30;73.80;;;;;;4973092;28;20213;-60
2021/03/20 06:27:52;;;;;;;14.63;10.97;;;3.50;73.20;;;;;;4985567;28;20219;-60
2021/03/20 06:30:36;;;;;;;12.83;10.17;;;3.70;72.70;;;;;;4974490;28;20296;-60
2021/03/20 06:33:18;;;;;;;15.37;11.37;;;3.90;72.10;;;;;;4974755;28;20233;-60
2021/03/20 06:35:50;;;;;;;13.93;10.53;;;4.00;71.60;;;;;;4989390;28;20303;-60
2021/03/20 06:38:32;;;;;;;15.10;11.33;;;4.10;71.30;;;;;;4973698;28;20610;-60
2021/03/20 06:41:11;;;;;;;19.27;10.77;;;4.20;71.00;;;;;;4972665;28;20205;-59
2021/03/20 06:44:09;;;;;;;19.27;11.07;;;4.30;70.60;;;;;;4971672;28;20342;-60
2021/03/20 06:46:39;;;;;;;16.83;11.03;;;4.40;70.50;;;;;;4969648;28;20217;-60
2021/03/20 06:49:31;;;;;;;21.77;11.07;;;4.50;70.10;;;;;;4970988;28;20378;-60
2021/03/20 06:52:01;;;;;;;13.80;10.50;;;4.60;69.80;;;;;;4972652;28;20201;-60
2021/03/20 06:54:29;;;;;;;20.17;10.73;;;4.70;69.20;;;;;;4973459;28;20228;-60
2021/03/20 06:56:56;;;;;;;13.33;10.80;;;4.70;69.20;;;;;;4973764;28;20244;-59
2021/03/20 06:59:24;;;;;;;21.97;11.47;;;4.80;69.20;;;;;;4973792;28;20552;-59
2021/03/20 07:02:03;;;;;;;16.17;11.73;;;4.90;69.00;;;;;;4972441;28;20213;-60
2021/03/20 07:04:51;;;;;;;14.23;11.90;;;5.00;69.10;;;;;;4973170;28;20541;-60
2021/03/20 07:07:44;;;;;;;16.57;12.00;;;5.00;69.20;;;;;;4967021;28;20229;-60
2021/03/20 07:10:37;;;;;;;23.20;12.60;;;5.00;69.60;;;;;;4971807;28;20220;-60
2021/03/20 07:13:28;;;;;;;18.00;13.00;;;5.00;70.10;;;;;;4967857;28;20238;-59
2021/03/20 07:16:06;;;;;;;16.60;12.47;;;5.20;70.30;;;;;;4967281;28;20611;-60
2021/03/20 07:18:37;;;;;;;19.10;14.07;;;5.20;70.70;;;;;;4971822;28;20283;-60
2021/03/20 07:21:22;;;;;;;18.73;13.47;;;5.20;71.30;;;;;;4970767;28;20208;-60
2021/03/20 07:24:06;;;;;;;22.47;15.47;;;5.30;72.00;;;;;;4988982;28;20329;-60
2021/03/20 07:26:48;;;;;;;24.70;15.70;;;5.40;71.90;;;;;;5001125;28;20212;-60
2021/03/20 07:29:16;;;;;;;21.20;14.73;;;5.50;72.20;;;;;;5009412;28;20216;-60
2021/03/20 07:31:55;;;;;;;24.57;15.83;;;5.50;72.20;;;;;;5015255;28;20299;-60
2021/03/20 07:34:31;;;;;;;27.03;17.50;;;5.60;72.20;;;;;;5000048;28;20231;-60
2021/03/20 07:37:06;;;;;;;23.00;16.97;;;5.70;72.30;;;;;;5007687;28;20219;-60
2021/03/20 07:39:47;;;;;;;25.93;16.53;;;5.80;72.50;;;;;;5011831;28;20215;-60
2021/03/20 07:42:28;;;;;;;20.63;15.80;;;5.90;72.70;;;;;;5005336;28;20212;-60
2021/03/20 07:45:27;;;;;;;24.47;15.90;;;6.00;72.90;;;;;;5008357;28;20212;-60
2021/03/20 07:47:54;;;;;;;21.73;16.27;;;6.30;73.20;;;;;;5006121;28;20208;-60
2021/03/20 07:50:26;;;;;;;29.73;18.13;;;6.50;72.60;;;;;;5000979;28;20212;-60
2021/03/20 07:53:08;;;;;;;27.13;17.53;;;6.70;72.10;;;;;;4991046;28;20649;-60
2021/03/20 07:56:02;;;;;;;34.77;21.97;;;7.00;71.50;;;;;;5001966;28;20618;-60
2021/03/20 07:58:39;;;;;;;38.03;25.80;;;7.30;71.30;;;;;;4980852;28;20528;-60
2021/03/20 08:01:19;;;;;;;27.57;20.70;;;7.50;70.30;;;;;;5013054;28;20655;-60
2021/03/20 08:03:52;;;;;;;27.97;19.10;;;7.80;69.70;;;;;;5005051;28;20206;-59
2021/03/20 08:06:22;;;;;;;27.47;19.20;;;8.00;68.90;;;;;;5005990;28;20219;-59
2021/03/20 08:09:11;;;;;;;27.70;18.90;;;8.20;68.20;;;;;;4993592;28;20229;-59
2021/03/20 08:11:39;;;;;;;26.63;17.97;;;8.40;67.40;;;;;;5010317;28;20223;-59
2021/03/20 08:14:17;;;;;;;30.67;20.50;;;8.60;66.80;;;;;;5015248;28;20239;-60
2021/03/20 08:16:44;;;;;;;29.67;19.50;;;8.80;65.40;;;;;;4991507;28;20214;-61
2021/03/20 08:19:15;;;;;;;23.30;19.43;;;8.90;65.90;;;;;;5013327;28;20216;-60
2021/03/20 08:22:04;;;;;;;23.00;17.83;;;9.10;65.50;;;;;;4988402;28;20653;-60
2021/03/20 08:25:01;;;;;;;22.77;16.33;;;9.30;65.00;;;;;;5003062;28;20252;-60
2021/03/20 08:27:40;;;;;;;21.60;15.57;;;9.50;64.50;;;;;;5007041;28;20633;-60
2021/03/20 08:30:34;;;;;;;15.30;12.77;;;9.80;64.20;;;;;;5014539;28;20265;-60
2021/03/20 08:33:28;;;;;;;18.50;13.80;;;10.00;61.80;;;;;;5011041;28;20583;-60
2021/03/20 08:36:14;;;;;;;15.23;12.20;;;10.20;61.90;;;;;;5004508;28;20231;-60
2021/03/20 08:38:58;;;;;;;15.77;12.10;;;10.30;60.40;;;;;;5011264;28;20212;-60
2021/03/20 08:41:36;;;;;;;13.93;10.57;;;10.40;58.50;;;;;;5009026;28;20215;-60
2021/03/20 08:44:12;;;;;;;13.77;9.97;;;10.40;56.90;;;;;;5002109;28;20303;-60
2021/03/20 08:47:33;;;;;;;12.80;10.80;;;10.50;56.80;;;;;;5013844;28;20207;-58
2021/03/20 08:50:16;;;;;;;11.50;10.17;;;10.60;57.20;;;;;;4927408;29;20212;-59
2021/03/20 08:53:00;;;;;;;12.60;10.30;;;10.80;56.00;;;;;;4998064;28;20208;-59
2021/03/20 08:55:57;;;;;;;12.57;11.20;;;10.90;55.60;;;;;;5007715;28;20232;-58
2021/03/20 08:58:30;;;;;;;12.13;10.63;;;11.00;55.10;;;;;;5008081;28;20204;-63
2021/03/20 09:01:31;;;;;;;16.40;11.80;;;11.00;55.10;;;;;;5015112;28;20196;-58
2021/03/20 09:04:01;;;;;;;12.80;11.13;;;11.00;54.70;;;;;;5003913;28;20216;-57
2021/03/20 09:06:41;;;;;;;11.57;9.83;;;11.10;54.50;;;;;;5015131;28;20311;-60
2021/03/20 09:09:28;;;;;;;12.27;10.47;;;11.20;54.30;;;;;;4995547;28;20219;-58
2021/03/20 09:12:07;;;;;;;13.20;10.37;;;11.20;54.60;;;;;;5009937;28;20592;-58
2021/03/20 09:14:44;;;;;;;11.83;10.50;;;11.30;52.60;;;;;;5013941;28;20681;-59
2021/03/20 09:17:18;;;;;;;13.67;10.53;;;11.30;52.60;;;;;;5005696;28;20635;-57
2021/03/20 09:19:55;;;;;;;12.93;10.53;;;11.30;53.10;;;;;;5014828;28;20307;-59
2021/03/20 09:22:27;;;;;;;11.23;10.00;;;11.50;52.10;;;;;;5005027;28;20218;-60
2021/03/20 09:24:59;;;;;;;11.80;10.17;;;11.50;51.80;;;;;;4992611;28;20222;-62
2021/03/20 09:28:04;;;;;;;14.70;11.00;;;11.60;52.90;;;;;;5012921;28;20212;-58
2021/03/20 09:30:55;;;;;;;11.63;9.10;;;11.80;53.30;;;;;;5000647;28;20207;-58
2021/03/20 09:33:25;;;;;;;15.77;10.03;;;11.90;49.60;;;;;;4991940;28;20248;-61
2021/03/20 09:35:59;;;;;;;12.47;10.10;;;11.90;50.50;;;;;;5014097;28;20236;-60
2021/03/20 09:38:35;;;;;;;10.60;7.60;;;11.90;50.30;;;;;;5008894;28;20208;-60
2021/03/20 09:41:07;;;;;;;10.73;8.07;;;12.00;48.40;;;;;;5004817;28;20210;-59
2021/03/20 09:43:36;;;;;;;10.70;7.10;;;12.10;49.20;;;;;;5017338;28;20307;-59
2021/03/20 09:46:29;;;;;;;9.67;6.03;;;12.30;47.70;;;;;;5013640;28;20306;-59
2021/03/20 09:48:57;;;;;;;9.27;7.40;;;12.40;46.40;;;;;;5009765;28;20212;-60
2021/03/20 09:52:02;;;;;;;9.03;7.20;;;12.40;45.10;;;;;;5013958;28;20218;-60
2021/03/20 09:54:30;;;;;;;8.87;7.47;;;12.40;45.10;;;;;;4950155;28;20241;-60
2021/03/20 09:57:05;;;;;;;8.60;6.73;;;12.40;46.00;;;;;;4960516;28;20264;-59
2021/03/20 09:59:32;;;;;;;10.67;7.70;;;12.50;45.10;;;;;;4985444;28;20275;-62
2021/03/20 10:02:02;;;;;;;8.83;6.87;;;12.70;45.30;;;;;;5002575;28;20243;-57
2021/03/20 10:04:35;;;;;;;10.03;6.93;;;12.90;46.20;;;;;;5008722;28;20575;-59
2021/03/20 10:07:20;;;;;;;10.47;7.30;;;12.90;43.50;;;;;;5009886;28;20303;-60
2021/03/20 10:10:13;;;;;;;9.77;6.93;;;12.90;43.60;;;;;;5011853;28;20243;-60
2021/03/20 10:12:42;;;;;;;9.63;7.70;;;12.90;45.60;;;;;;5009164;28;20219;-60
2021/03/20 10:15:15;;;;;;;9.17;6.87;;;12.90;44.70;;;;;;5004758;28;20246;-61
2021/03/20 10:18:04;;;;;;;8.93;6.57;;;13.00;45.10;;;;;;5004596;28;20581;-58
2021/03/20 10:20:48;;;;;;;9.53;7.17;;;13.10;44.00;;;;;;5004843;28;20208;-60
2021/03/20 10:23:42;;;;;;;8.90;6.53;;;13.20;44.30;;;;;;5005855;28;20751;-58
2021/03/20 10:26:28;;;;;;;9.53;7.40;;;13.30;43.90;;;;;;5012098;28;20216;-60
2021/03/20 10:28:57;;;;;;;9.10;7.07;;;13.40;42.50;;;;;;5010955;28;20270;-59
2021/03/20 10:31:25;;;;;;;8.27;6.83;;;13.30;43.30;;;;;;5007676;28;20297;-59
2021/03/20 10:34:08;;;;;;;9.70;6.83;;;13.40;43.80;;;;;;5010873;28;20204;-61
2021/03/20 10:36:41;;;;;;;8.20;6.37;;;13.40;42.10;;;;;;5011050;28;20207;-58
2021/03/20 10:39:30;;;;;;;7.93;6.90;;;13.50;41.30;;;;;;5012795;28;20212;-60
2021/03/20 10:42:12;;;;;;;8.37;6.70;;;13.70;41.50;;;;;;5011618;28;20204;-63
2021/03/20 10:44:42;;;;;;;8.17;5.83;;;13.70;40.20;;;;;;5005478;28;20208;-58
2021/03/20 10:47:12;;;;;;;8.90;6.20;;;13.70;40.80;;;;;;4995922;28;20222;-62
2021/03/20 10:49:57;;;;;;;7.87;6.03;;;13.80;39.60;;;;;;5011644;28;20307;-60
2021/03/20 10:52:29;;;;;;;13.43;5.90;;;13.70;40.30;;;;;;5010749;28;20671;-60
2021/03/20 10:54:59;;;;;;;8.47;6.20;;;13.70;40.10;;;;;;5012983;28;20286;-60
2021/03/20 10:57:30;;;;;;;6.80;5.87;;;13.70;40.00;;;;;;5012298;28;20234;-60
2021/03/20 10:59:58;;;;;;;7.03;5.53;;;13.70;40.80;;;;;;5011487;28;20204;-60
2021/03/20 11:02:30;;;;;;;7.90;6.23;;;13.70;40.60;;;;;;5010835;28;20239;-60
2021/03/20 11:05:22;;;;;;;7.20;5.30;;;13.90;39.00;;;;;;5011858;28;20239;-60
2021/03/20 11:08:10;;;;;;;5.00;4.13;;;14.10;38.70;;;;;;4999479;28;20769;-60
2021/03/20 11:10:44;;;;;;;5.83;4.73;;;14.30;38.00;;;;;;5010734;28;20215;-60
2021/03/20 11:13:17;;;;;;;8.43;5.13;;;14.40;35.40;;;;;;5009462;28;20216;-60
2021/03/20 11:15:49;;;;;;;5.93;4.97;;;14.40;34.50;;;;;;5006643;28;20259;-60
2021/03/20 11:18:30;;;;;;;6.27;4.90;;;14.30;35.30;;;;;;5002787;28;20209;-60
2021/03/20 11:20:57;;;;;;;6.10;5.50;;;14.40;35.10;;;;;;5011250;28;20204;-60
2021/03/20 11:23:34;;;;;;;8.17;5.43;;;14.40;36.40;;;;;;5006708;28;20242;-59
2021/03/20 11:26:26;;;;;;;6.27;5.00;;;14.50;36.60;;;;;;4999106;28;20226;-58
2021/03/20 11:28:53;;;;;;;6.07;5.07;;;14.40;36.70;;;;;;5009635;28;20214;-58
2021/03/20 11:31:21;;;;;;;7.77;4.93;;;14.50;36.50;;;;;;5009331;28;20306;-58
2021/03/20 11:33:49;;;;;;;7.30;5.47;;;14.50;35.70;;;;;;5010006;28;20397;-56
2021/03/20 11:36:24;;;;;;;5.13;4.00;;;14.60;34.90;;;;;;5009216;28;20304;-60
2021/03/20 11:38:51;;;;;;;5.97;4.57;;;14.80;34.80;;;;;;5008617;28;20222;-60
2021/03/20 11:41:20;;;;;;;5.67;4.30;;;14.80;34.90;;;;;;5012355;28;20641;-61
2021/03/20 11:43:47;;;;;;;5.43;4.83;;;14.80;34.10;;;;;;5010597;28;20278;-58
2021/03/20 11:46:17;;;;;;;8.37;5.20;;;14.50;34.70;;;;;;5009421;28;20216;-59
2021/03/20 11:48:52;;;;;;;5.30;3.07;;;14.40;35.60;;;;;;5012395;28;20550;-58
2021/03/20 11:51:45;;;;;;;6.03;2.63;;;14.40;39.70;;;;;;5011089;28;20302;-60
2021/03/20 11:54:35;;;;;;;7.57;2.30;;;13.70;43.50;;;;;;4995828;28;20208;-59
2021/03/20 11:57:22;;;;;;;3.13;2.53;;;12.50;45.20;;;;;;5010223;28;20208;-59
2021/03/20 11:59:50;;;;;;;4.47;2.27;;;11.50;48.10;;;;;;5005628;28;20222;-59
2021/03/20 12:02:23;;;;;;;5.07;2.30;;;10.90;50.80;;;;;;5004841;28;20216;-58
2021/03/20 12:05:20;;;;;;;6.07;2.57;;;10.30;53.10;;;;;;5001732;28;20654;-58
2021/03/20 12:08:18;;;;;;;5.03;2.67;;;9.90;55.10;;;;;;5009451;28;20277;-58
2021/03/20 12:11:07;;;;;;;4.50;3.03;;;9.50;57.50;;;;;;5008701;28;20218;-58
2021/03/20 12:13:43;;;;;;;3.43;2.17;;;9.20;58.90;;;;;;4982969;28;20313;-58
2021/03/20 12:16:39;;;;;;;3.27;1.90;;;9.00;60.30;;;;;;5003734;28;20298;-58
2021/03/20 12:19:10;;;;;;;2.30;2.10;;;8.70;61.50;;;;;;5007671;28;20228;-58
2021/03/20 12:22:00;;;;;;;3.30;1.80;;;8.50;63.00;;;;;;5006610;28;20215;-58
2021/03/20 12:24:31;;;;;;;3.70;1.90;;;8.30;64.00;;;;;;4995093;28;20255;-58
2021/03/20 12:27:22;;;;;;;2.77;1.77;;;8.10;66.00;;;;;;4988495;28;20279;-58
2021/03/20 12:29:51;;;;;;;4.77;2.00;;;7.80;68.50;;;;;;5009455;28;20703;-58
2021/03/20 12:32:25;;;;;;;3.23;2.73;;;7.60;68.80;;;;;;5009973;28;20204;-60
2021/03/20 12:34:52;;;;;;;2.50;2.17;;;7.30;70.40;;;;;;5010644;28;20672;-60
2021/03/20 12:37:22;;;;;;;3.20;2.27;;;7.10;71.60;;;;;;5007512;28;20239;-60
2021/03/20 12:39:50;;;;;;;2.70;2.50;;;6.90;72.70;;;;;;5009442;28;20212;-60
2021/03/20 12:42:17;;;;;;;4.30;2.40;;;6.90;73.60;;;;;;5011686;28;20214;-61
2021/03/20 12:44:48;;;;;;;8.33;3.00;;;6.80;73.30;;;;;;5014114;28;20212;-61
2021/03/20 12:47:18;;;;;;;3.10;2.73;;;6.80;73.00;;;;;;5006964;28;20255;-61
2021/03/20 12:49:45;;;;;;;2.90;2.30;;;6.80;73.00;;;;;;5014624;28;20230;-63
2021/03/20 12:52:18;;;;;;;5.20;2.80;;;6.90;72.80;;;;;;5005059;28;20308;-62
2021/03/20 12:54:50;;;;;;;3.70;3.00;;;7.00;72.80;;;;;;5009537;28;20223;-62
2021/03/20 12:57:25;;;;;;;3.23;2.67;;;7.10;72.30;;;;;;5014830;28;20227;-63
2021/03/20 12:59:51;;;;;;;3.77;2.83;;;7.20;71.40;;;;;;5012143;28;20214;-62
2021/03/20 13:02:19;;;;;;;3.87;3.10;;;7.40;71.10;;;;;;5014978;28;20253;-62
2021/03/20 13:04:47;;;;;;;3.53;3.23;;;7.60;70.90;;;;;;4996313;28;20212;-62
2021/03/20 13:07:15;;;;;;;3.77;2.77;;;7.80;70.30;;;;;;5009500;28;21351;-62
2021/03/20 13:09:43;;;;;;;3.00;2.70;;;8.10;69.80;;;;;;4996613;28;20603;-62
2021/03/20 13:12:11;;;;;;;3.37;2.43;;;8.30;69.50;;;;;;5012247;28;20562;-62
2021/03/20 13:14:40;;;;;;;2.97;2.77;;;8.40;67.60;;;;;;5013819;28;20231;-62
2021/03/20 13:17:08;;;;;;;4.97;2.20;;;8.30;68.00;;;;;;5007681;28;20219;-62
2021/03/20 13:19:38;;;;;;;3.23;2.67;;;8.30;68.80;;;;;;5014000;28;20208;-61
2021/03/20 13:22:06;;;;;;;3.07;2.23;;;8.30;69.10;;;;;;5013244;28;20293;-61
2021/03/20 13:24:34;;;;;;;4.03;2.80;;;8.20;69.10;;;;;;5013242;28;20248;-61
2021/03/20 13:27:02;;;;;;;2.33;2.13;;;8.20;68.80;;;;;;5011468;28;20204;-61
2021/03/20 13:29:30;;;;;;;2.80;1.80;;;8.10;69.10;;;;;;5012887;28;20207;-61
2021/03/20 13:31:57;;;;;;;2.43;2.23;;;8.10;68.90;;;;;;5010208;28;20210;-61